Time;durP1;ratioP1;P1;durP2;ratioP2;P2;SDS_P1;SDS_P2;PMS_P1;PMS_P2;Temp;Humidity;BMP_temperature;BMP_pressure;BME280_temperature;BME280_humidity;BME280_pressure;Samples;Min_cycle;Max_cycle;Signal;HPM_P1;HPM_P2
2023/01/06 00:01:25;;;;;;;1.23;0.80;;;;;;;16.33;32.36;101428.91;6240375;22;20011;-86
2023/01/06 00:03:53;;;;;;;1.40;0.60;;;;;;;16.20;32.37;101429.69;6238989;23;20028;-87
2023/01/06 00:06:19;;;;;;;0.82;0.60;;;;;;;16.08;32.35;101401.63;6241154;22;20035;-87
2023/01/06 00:08:48;;;;;;;0.70;0.57;;;;;;;16.03;32.29;101399.50;6240677;22;20006;-87
2023/01/06 00:11:14;;;;;;;1.67;0.80;;;;;;;16.31;32.47;101434.50;6238895;23;20035;-87
2023/01/06 00:13:40;;;;;;;0.88;0.60;;;;;;;16.26;32.29;101426.16;6239433;22;20012;-87
2023/01/06 00:16:12;;;;;;;1.30;0.80;;;;;;;16.18;32.25;101422.81;6241286;22;20031;-87
2023/01/06 00:18:38;;;;;;;1.45;0.80;;;;;;;16.23;32.39;101434.69;6238840;23;20024;-87
2023/01/06 00:21:07;;;;;;;1.50;0.65;;;;;;;16.21;32.21;101417.03;6238414;23;20008;-87
2023/01/06 00:23:33;;;;;;;0.82;0.60;;;;;;;16.30;32.36;101442.81;6240430;22;20394;-87
2023/01/06 00:26:02;;;;;;;2.05;0.82;;;;;;;16.43;32.46;101455.53;6187882;23;20012;-87
2023/01/06 00:28:27;;;;;;;1.02;0.60;;;;;;;16.38;32.21;101453.41;6212496;23;20135;-87
2023/01/06 00:30:53;;;;;;;1.05;0.75;;;;;;;16.18;32.18;101418.28;6211894;23;20016;-87
2023/01/06 00:33:19;;;;;;;1.65;0.70;;;;;;;16.21;32.42;101433.19;6188283;23;20442;-87
2023/01/06 00:35:45;;;;;;;1.20;0.70;;;;;;;16.27;32.33;101443.22;6239968;22;20071;-87
2023/01/06 00:38:10;;;;;;;1.08;0.80;;;;;;;16.32;32.32;101457.75;6240246;22;20012;-87
2023/01/06 00:40:36;;;;;;;1.08;0.63;;;;;;;16.15;32.44;101441.06;6237933;23;20026;-87
2023/01/06 00:43:02;;;;;;;1.30;0.70;;;;;;;16.45;32.45;101483.13;6239259;22;19996;-87
2023/01/06 00:45:28;;;;;;;1.40;0.70;;;;;;;16.24;32.47;101470.56;6238627;23;20012;-86
2023/01/06 00:47:54;;;;;;;2.17;0.82;;;;;;;16.19;32.08;101463.06;6241443;22;20004;-87
2023/01/06 00:50:19;;;;;;;0.63;0.60;;;;;;;16.18;32.37;101466.81;6239688;22;20097;-86
2023/01/06 00:52:48;;;;;;;1.08;0.70;;;;;;;16.36;32.30;101479.75;6240690;23;20203;-87
2023/01/06 00:55:14;;;;;;;1.27;0.70;;;;;;;16.18;32.21;101449.78;6237200;23;19999;-87
2023/01/06 00:57:39;;;;;;;0.85;0.63;;;;;;;16.22;32.42;101472.63;6240149;23;20087;-87
2023/01/06 01:00:07;;;;;;;0.70;0.60;;;;;;;16.28;32.32;101467.28;6240711;23;20035;-87
2023/01/06 01:02:33;;;;;;;0.65;0.52;;;;;;;16.25;32.27;101483.84;6241000;22;20000;-87
2023/01/06 01:04:59;;;;;;;0.65;0.60;;;;;;;16.45;32.41;101515.50;6240770;23;20011;-87
2023/01/06 01:07:24;;;;;;;1.90;0.80;;;;;;;16.33;32.41;101504.44;6214192;23;20408;-87
2023/01/06 01:09:50;;;;;;;0.77;0.60;;;;;;;16.14;32.45;101476.31;6239250;23;20081;-87
2023/01/06 01:12:16;;;;;;;0.88;0.77;;;;;;;16.27;32.42;101500.69;6240741;23;20127;-87
2023/01/06 01:14:46;;;;;;;1.90;0.70;;;;;;;16.36;32.41;101519.41;6240780;22;20003;-87
2023/01/06 01:17:13;;;;;;;0.63;0.60;;;;;;;16.30;32.16;101519.16;6241333;22;20450;-87
2023/01/06 01:19:39;;;;;;;1.00;0.80;;;;;;;16.24;32.54;101516.41;6238920;23;20027;-87
2023/01/06 01:22:05;;;;;;;1.20;0.90;;;;;;;16.19;32.44;101495.44;6239373;23;20004;-86
2023/01/06 01:24:34;;;;;;;1.50;0.70;;;;;;;16.07;32.44;101492.44;6239182;23;20004;-87
2023/01/06 01:27:00;;;;;;;1.17;0.77;;;;;;;16.44;32.40;101541.66;6239361;23;20012;-87
2023/01/06 01:29:25;;;;;;;1.77;0.60;;;;;;;16.17;32.57;101515.56;6240510;22;20244;-87
2023/01/06 01:31:51;;;;;;;1.00;0.70;;;;;;;16.18;32.42;101509.97;6239167;23;20008;-87
2023/01/06 01:34:17;;;;;;;1.10;0.60;;;;;;;16.30;32.18;101518.34;6240178;22;20012;-87
2023/01/06 01:36:46;;;;;;;1.27;0.80;;;;;;;16.02;32.37;101461.72;6238706;23;20008;-87
2023/01/06 01:39:13;;;;;;;1.25;0.75;;;;;;;16.43;32.32;101542.69;6239307;23;20019;-86
2023/01/06 01:41:38;;;;;;;1.15;0.60;;;;;;;16.26;32.21;101500.88;6240382;23;20180;-87
2023/01/06 01:44:41;;;;;;;1.17;0.63;;;;;;;16.45;32.44;101531.69;6241963;23;20004;-87
2023/01/06 01:47:08;;;;;;;1.13;0.60;;;;;;;16.14;32.50;101482.56;6241514;23;20452;-87
2023/01/06 01:49:35;;;;;;;1.77;0.70;;;;;;;16.11;32.37;101471.34;6240225;23;20531;-87
2023/01/06 01:52:04;;;;;;;1.05;0.60;;;;;;;16.34;32.38;101517.72;6240331;23;20004;-87
2023/01/06 01:54:32;;;;;;;1.35;0.82;;;;;;;16.33;32.46;101517.91;6214742;23;20080;-86
2023/01/06 01:57:00;;;;;;;2.15;0.80;;;;;;;16.39;32.29;101541.41;6240239;23;20055;-87
2023/01/06 01:59:27;;;;;;;1.33;0.70;;;;;;;16.34;32.44;101525.81;6240736;23;20337;-87
2023/01/06 02:01:53;;;;;;;1.75;0.60;;;;;;;16.15;32.40;101505.78;6190691;23;20019;-87
2023/01/06 02:04:19;;;;;;;1.35;0.70;;;;;;;16.44;32.51;101551.63;6242535;23;20434;-87
2023/01/06 02:06:49;;;;;;;1.42;0.85;;;;;;;16.28;32.18;101526.63;6240675;23;19997;-87
2023/01/06 02:09:23;;;;;;;2.72;0.90;;;;;;;16.45;32.38;101547.88;6189638;23;20004;-87
2023/01/06 02:11:50;;;;;;;1.75;0.63;;;;;;;16.10;32.35;101507.41;6240617;23;19996;-87
2023/01/06 02:14:26;;;;;;;1.52;0.90;;;;;;;16.22;32.41;101526.59;6240794;23;20377;-87
2023/01/06 02:17:27;;;;;;;2.03;0.88;;;;;;;16.48;32.35;101558.28;6241719;22;20004;-87
2023/01/06 02:20:11;;;;;;;0.95;0.60;;;;;;;16.45;32.36;101559.53;6214493;23;20024;-87
2023/01/06 02:23:05;;;;;;;1.27;0.85;;;;;;;16.41;32.64;101563.63;6239470;23;20008;-87
2023/01/06 02:25:52;;;;;;;0.88;0.68;;;;;;;16.43;32.48;101571.53;6197549;22;20325;-87
2023/01/06 02:28:33;;;;;;;2.35;0.70;;;;;;;16.40;32.50;101566.53;6241558;22;20361;-87
2023/01/06 02:31:17;;;;;;;1.77;0.80;;;;;;;16.44;32.31;101573.22;6239691;23;20046;-87
2023/01/06 02:34:05;;;;;;;1.60;0.70;;;;;;;16.48;32.45;101585.28;6239681;23;20012;-86
2023/01/06 02:37:12;;;;;;;0.85;0.50;;;;;;;16.41;32.28;101568.22;6214332;23;20004;-87
2023/01/06 02:40:16;;;;;;;1.20;0.68;;;;;;;16.46;32.35;101580.06;6240970;23;20433;-87
2023/01/06 02:42:46;;;;;;;1.65;0.75;;;;;;;16.45;32.54;101582.97;6234826;23;20015;-87
2023/01/06 02:45:46;;;;;;;0.98;0.60;;;;;;;16.47;32.45;101588.97;6190485;23;20011;-87
2023/01/06 02:48:17;;;;;;;0.95;0.57;;;;;;;16.39;32.35;101583.75;6194152;22;20345;-86
2023/01/06 02:51:03;;;;;;;0.85;0.47;;;;;;;16.29;32.38;101571.44;6215100;23;20032;-87
2023/01/06 02:53:53;;;;;;;0.70;0.47;;;;;;;16.49;32.37;101603.13;6191243;23;20008;-86
2023/01/06 02:56:20;;;;;;;1.35;0.75;;;;;;;16.26;32.46;101573.69;6239677;23;20008;-87
2023/01/06 02:58:54;;;;;;;0.70;0.65;;;;;;;16.47;32.43;101610.56;6239649;23;20075;-87
2023/01/06 03:01:29;;;;;;;1.60;0.70;;;;;;;16.20;32.44;101551.06;6190141;23;20333;-87
2023/01/06 03:03:55;;;;;;;1.23;0.70;;;;;;;16.04;32.48;101540.53;6190065;23;20004;-87
2023/01/06 03:06:23;;;;;;;0.70;0.50;;;;;;;16.13;32.40;101544.78;6214037;23;20016;-87
2023/01/06 03:08:49;;;;;;;0.80;0.50;;;;;;;16.29;32.40;101571.44;6214291;23;20004;-87
2023/01/06 03:11:14;;;;;;;1.45;0.70;;;;;;;16.26;32.32;101565.59;6239381;23;20011;-87
2023/01/06 03:13:52;;;;;;;1.15;0.63;;;;;;;16.30;32.36;101567.72;6214669;23;20000;-87
2023/01/06 03:16:18;;;;;;;1.15;0.60;;;;;;;16.14;32.36;101541.88;6240958;22;20440;-87
2023/01/06 03:18:44;;;;;;;0.70;0.52;;;;;;;16.41;32.26;101573.59;6239055;23;20020;-87
2023/01/06 03:21:15;;;;;;;1.15;0.80;;;;;;;16.27;32.40;101546.53;6188155;23;20008;-87
2023/01/06 03:23:40;;;;;;;1.20;0.70;;;;;;;16.27;32.30;101546.53;6214144;23;20404;-87
2023/01/06 03:26:07;;;;;;;1.48;0.70;;;;;;;16.50;32.48;101572.41;6240849;22;20079;-87
2023/01/06 03:28:32;;;;;;;1.40;0.80;;;;;;;16.22;32.24;101530.09;6240878;22;20027;-86
2023/01/06 03:31:16;;;;;;;0.75;0.50;;;;;;;16.47;32.44;101578.19;6240582;22;20500;-87
2023/01/06 03:33:52;;;;;;;1.10;0.63;;;;;;;16.49;32.46;101576.16;6241107;22;20012;-87
2023/01/06 03:36:42;;;;;;;0.60;0.50;;;;;;;16.23;32.77;101547.97;6238873;23;20441;-87
2023/01/06 03:39:15;;;;;;;0.95;0.55;;;;;;;16.44;32.40;101576.75;6238960;23;20012;-87
2023/01/06 03:45:05;;;;;;;0.45;0.45;;;;;;;16.33;32.33;101571.88;6239629;23;20011;-87
2023/01/06 03:47:46;;;;;;;1.67;0.80;;;;;;;16.35;32.31;101572.53;6239183;23;20011;-87
2023/01/06 03:50:16;;;;;;;1.17;0.63;;;;;;;16.38;32.37;101579.38;6213531;23;20011;-86
2023/01/06 03:52:46;;;;;;;0.90;0.70;;;;;;;16.41;32.38;101595.19;6215363;23;20409;-86
2023/01/06 03:55:17;;;;;;;0.93;0.63;;;;;;;16.33;32.41;101575.44;6189618;23;20054;-86
2023/01/06 03:57:49;;;;;;;0.90;0.60;;;;;;;16.46;32.29;101592.72;6189898;23;20004;-87
2023/01/06 04:00:20;;;;;;;1.38;0.70;;;;;;;16.40;32.31;101585.41;6215579;23;20012;-87
2023/01/06 04:02:49;;;;;;;0.52;0.52;;;;;;;16.34;32.41;101582.47;6214433;23;20008;-87
2023/01/06 04:05:14;;;;;;;1.10;0.75;;;;;;;16.51;32.30;101609.16;6238205;23;20016;-87
2023/01/06 04:07:40;;;;;;;0.98;0.60;;;;;;;16.27;32.33;101578.91;6240648;22;20034;-87
2023/01/06 04:10:06;;;;;;;0.80;0.50;;;;;;;16.22;32.31;101565.16;6189390;23;20266;-87
2023/01/06 04:12:38;;;;;;;1.25;0.60;;;;;;;16.33;32.41;101599.72;6214354;23;20004;-87
2023/01/06 04:15:14;;;;;;;0.93;0.50;;;;;;;16.21;32.24;101574.31;6190500;23;20010;-86
2023/01/06 04:17:41;;;;;;;0.90;0.60;;;;;;;16.17;32.12;101583.81;6240607;22;20024;-87
2023/01/06 04:20:08;;;;;;;0.77;0.60;;;;;;;16.26;32.24;101577.22;6238846;23;20004;-87
2023/01/06 04:22:34;;;;;;;0.70;0.50;;;;;;;16.41;32.16;101608.69;6240300;22;20071;-86
2023/01/06 04:25:00;;;;;;;1.42;0.80;;;;;;;16.29;32.44;101579.53;6240244;22;20014;-86
2023/01/06 04:27:25;;;;;;;0.68;0.47;;;;;;;16.28;32.40;101571.63;6239152;23;20012;-86
2023/01/06 04:29:51;;;;;;;0.98;0.68;;;;;;;16.44;32.37;101606.41;6240072;23;20318;-87
2023/01/06 04:32:17;;;;;;;0.93;0.55;;;;;;;16.13;32.30;101560.97;6240676;23;20004;-87
2023/01/06 04:34:43;;;;;;;0.75;0.47;;;;;;;16.30;32.35;101583.91;6213258;23;20004;-86
2023/01/06 04:37:11;;;;;;;0.85;0.50;;;;;;;16.20;32.20;101593.38;6238289;23;20012;-87
2023/01/06 04:39:37;;;;;;;0.65;0.63;;;;;;;16.43;32.19;101620.94;6238765;23;20075;-87
2023/01/06 04:42:03;;;;;;;1.88;0.60;;;;;;;16.27;32.24;101594.25;6238819;23;20464;-87
2023/01/06 04:44:29;;;;;;;1.73;0.70;;;;;;;16.22;32.42;101591.31;6238414;23;20007;-86
2023/01/06 04:46:54;;;;;;;0.80;0.47;;;;;;;16.24;32.28;101584.69;6239676;23;20012;-87
2023/01/06 04:49:20;;;;;;;2.03;0.50;;;;;;;16.43;32.30;101612.84;6237998;23;20004;-87
2023/01/06 04:51:46;;;;;;;1.40;0.70;;;;;;;16.40;32.20;101620.50;6213692;23;20012;-87
2023/01/06 04:54:12;;;;;;;1.50;0.80;;;;;;;16.35;32.06;101607.59;6188768;23;20008;-86
2023/01/06 04:56:37;;;;;;;0.98;0.50;;;;;;;16.43;32.33;101628.19;6239932;23;20000;-87
2023/01/06 04:59:03;;;;;;;1.83;0.80;;;;;;;16.25;32.25;101597.16;6239588;22;20004;-87
2023/01/06 05:01:31;;;;;;;0.75;0.43;;;;;;;16.21;32.32;101595.88;6240433;22;20050;-87
2023/01/06 05:04:01;;;;;;;1.30;0.75;;;;;;;16.23;32.40;101601.06;6238513;23;20005;-87
2023/01/06 05:06:27;;;;;;;1.15;0.70;;;;;;;16.28;32.11;101604.84;6238565;23;20079;-87
2023/01/06 05:08:53;;;;;;;0.90;0.50;;;;;;;16.24;32.25;101598.16;6238055;23;20377;-87
2023/01/06 05:11:23;;;;;;;1.70;0.70;;;;;;;16.34;32.30;101617.53;6238822;23;20032;-87
2023/01/06 05:13:49;;;;;;;0.80;0.60;;;;;;;16.35;32.21;101613.00;6188639;23;20040;-86
2023/01/06 05:16:23;;;;;;;0.80;0.60;;;;;;;16.26;32.30;101606.88;6242655;23;20011;-87
2023/01/06 05:18:49;;;;;;;0.93;0.50;;;;;;;16.31;32.29;101622.50;6240093;23;20279;-87
2023/01/06 05:21:15;;;;;;;1.05;0.68;;;;;;;16.24;32.23;101610.81;6190369;23;20101;-87
2023/01/06 05:23:40;;;;;;;2.28;0.93;;;;;;;16.26;32.12;101604.19;6215258;23;20062;-87
2023/01/06 05:26:06;;;;;;;2.03;0.80;;;;;;;16.23;32.18;101604.59;6240494;23;20004;-86
2023/01/06 05:28:32;;;;;;;1.00;0.47;;;;;;;16.33;32.29;101620.44;6242645;22;20008;-87
2023/01/06 05:31:01;;;;;;;1.30;0.60;;;;;;;16.22;32.28;101602.94;6241762;23;20004;-86
2023/01/06 05:33:27;;;;;;;0.85;0.43;;;;;;;16.55;32.08;101652.78;6190871;23;20004;-87
2023/01/06 05:36:15;;;;;;;1.20;0.55;;;;;;;16.18;32.26;101600.81;6189984;23;20034;-86
2023/01/06 05:38:40;;;;;;;1.33;0.70;;;;;;;16.31;32.22;101623.31;6241773;22;20012;-87
2023/01/06 05:41:06;;;;;;;1.73;0.80;;;;;;;16.38;32.22;101633.34;6239943;23;20047;-87
2023/01/06 05:43:35;;;;;;;0.85;0.60;;;;;;;16.19;32.10;101597.91;6240367;23;20000;-87
2023/01/06 05:46:08;;;;;;;0.85;0.57;;;;;;;16.16;32.40;101603.72;6241747;22;20079;-87
2023/01/06 05:48:34;;;;;;;2.53;0.63;;;;;;;16.15;32.21;101613.66;6240791;23;20066;-87
2023/01/06 05:51:05;;;;;;;1.05;0.70;;;;;;;16.43;32.09;101644.38;6239404;23;20079;-87
2023/01/06 05:53:34;;;;;;;1.77;0.50;;;;;;;16.34;32.19;101643.69;6242863;22;20004;-86
2023/01/06 05:56:04;;;;;;;1.08;0.50;;;;;;;16.30;32.18;101642.44;6215282;23;20378;-87
2023/01/06 05:58:32;;;;;;;0.93;0.50;;;;;;;16.45;32.25;101677.41;6242122;22;20329;-87
2023/01/06 06:00:58;;;;;;;0.68;0.68;;;;;;;16.48;32.20;101682.41;6189692;23;20008;-87
2023/01/06 06:03:27;;;;;;;2.20;0.63;;;;;;;16.27;32.17;101640.94;6215162;23;20417;-87
2023/01/06 06:05:52;;;;;;;0.73;0.50;;;;;;;16.38;32.24;101665.72;6190866;23;20111;-87
2023/01/06 06:08:18;;;;;;;1.20;0.60;;;;;;;16.38;32.14;101658.44;6240319;23;20449;-87
2023/01/06 06:10:44;;;;;;;1.25;0.68;;;;;;;16.30;32.53;101642.44;6239826;23;20016;-87
2023/01/06 06:13:09;;;;;;;0.88;0.40;;;;;;;16.44;32.14;101654.97;6240112;23;20406;-87
2023/01/06 06:15:35;;;;;;;1.45;0.60;;;;;;;16.28;32.21;101634.53;6241265;22;20032;-87
2023/01/06 06:18:01;;;;;;;1.50;0.73;;;;;;;16.24;32.12;101638.63;6241401;22;20353;-87
2023/01/06 06:20:27;;;;;;;0.70;0.65;;;;;;;16.45;32.17;101661.22;6240348;23;20031;-87
2023/01/06 06:22:53;;;;;;;1.13;0.50;;;;;;;16.37;32.17;101653.25;6240700;22;20004;-87
2023/01/06 06:25:19;;;;;;;2.78;0.85;;;;;;;16.32;32.08;101653.84;6239490;23;20004;-87
2023/01/06 06:27:44;;;;;;;1.33;0.90;;;;;;;16.46;32.16;101674.50;6239716;23;20012;-87
2023/01/06 06:30:10;;;;;;;1.23;0.60;;;;;;;16.26;32.27;101658.13;6241287;23;20053;-87
2023/01/06 06:32:36;;;;;;;1.08;0.68;;;;;;;16.27;32.24;101642.81;6241356;22;20004;-86
2023/01/06 06:35:02;;;;;;;0.40;0.40;;;;;;;16.37;32.14;101661.34;6240855;22;20083;-87
2023/01/06 06:37:30;;;;;;;1.00;0.45;;;;;;;16.55;32.10;101695.97;6241374;22;20004;-86
2023/01/06 06:39:56;;;;;;;0.63;0.52;;;;;;;16.28;32.33;101648.03;6214203;23;20020;-87
2023/01/06 06:42:22;;;;;;;2.08;0.77;;;;;;;16.37;32.25;101664.03;6213629;23;20493;-87
2023/01/06 06:44:48;;;;;;;1.08;0.68;;;;;;;16.02;32.09;101623.50;6188681;23;20472;-86
2023/01/06 06:47:14;;;;;;;0.52;0.40;;;;;;;16.56;32.08;101705.72;6240816;23;20011;-87
2023/01/06 06:49:40;;;;;;;1.27;0.60;;;;;;;16.51;32.23;101690.94;6190030;23;20437;-87
2023/01/06 06:52:06;;;;;;;0.73;0.50;;;;;;;16.39;32.11;101672.81;6189501;23;20015;-87
2023/01/06 06:54:32;;;;;;;1.20;0.60;;;;;;;16.31;32.13;101676.44;6241520;22;20453;-86
2023/01/06 06:56:57;;;;;;;0.90;0.60;;;;;;;16.43;32.11;101695.66;6188492;23;20429;-87
2023/01/06 06:59:23;;;;;;;0.98;0.57;;;;;;;16.39;32.26;101703.31;6240707;22;20008;-87
2023/01/06 07:01:49;;;;;;;1.20;0.50;;;;;;;16.36;32.29;101692.06;6238837;23;20302;-87
2023/01/06 07:04:14;;;;;;;1.60;0.70;;;;;;;16.37;32.20;101697.28;6241373;23;20028;-87
2023/01/06 07:06:40;;;;;;;1.20;0.77;;;;;;;16.51;32.17;101712.53;6239858;23;20011;-87
2023/01/06 07:09:06;;;;;;;1.02;0.50;;;;;;;16.29;32.16;101673.94;6239320;23;20279;-87
2023/01/06 07:11:31;;;;;;;1.02;0.70;;;;;;;16.30;32.04;101681.03;6241077;22;20010;-87
2023/01/06 07:13:57;;;;;;;0.60;0.50;;;;;;;16.29;31.91;101687.44;6239513;23;20056;-87
2023/01/06 07:16:25;;;;;;;2.00;0.70;;;;;;;16.47;32.10;101713.09;6239591;23;20000;-87
2023/01/06 07:18:52;;;;;;;1.00;0.60;;;;;;;16.54;32.16;101727.53;6239585;23;20015;-87
2023/01/06 07:21:17;;;;;;;1.80;0.60;;;;;;;16.34;32.06;101686.88;6214918;23;20063;-87
2023/01/06 07:23:43;;;;;;;1.48;0.73;;;;;;;16.45;32.21;101699.84;6241020;23;20020;-86
2023/01/06 07:26:10;;;;;;;0.55;0.40;;;;;;;16.33;32.00;101679.78;6241617;22;20003;-86
2023/01/06 07:28:36;;;;;;;1.27;0.77;;;;;;;16.30;32.16;101674.81;6241467;22;20031;-87
2023/01/06 07:31:02;;;;;;;1.58;0.82;;;;;;;16.34;32.19;101693.09;6240543;22;20056;-87
2023/01/06 07:33:28;;;;;;;1.92;0.65;;;;;;;16.35;32.19;101691.25;6241723;22;20111;-87
2023/01/06 07:35:54;;;;;;;0.63;0.43;;;;;;;16.59;32.45;101713.41;6241731;22;20706;-87
2023/01/06 07:38:20;;;;;;;0.90;0.55;;;;;;;16.56;32.10;101709.25;6241397;22;20008;-86
2023/01/06 07:40:48;;;;;;;1.27;0.70;;;;;;;16.41;32.01;101692.31;6242333;23;20376;-87
2023/01/06 07:43:15;;;;;;;0.82;0.60;;;;;;;16.34;32.13;101687.69;6242475;23;20011;-87
2023/01/06 07:45:41;;;;;;;1.35;0.68;;;;;;;16.45;32.17;101707.06;6191211;23;20060;-87
2023/01/06 07:48:08;;;;;;;1.20;0.80;;;;;;;16.28;32.17;101677.69;6242383;23;20019;-87
2023/01/06 07:50:33;;;;;;;0.63;0.52;;;;;;;16.32;32.12;101687.06;6188985;23;20069;-87
2023/01/06 07:53:00;;;;;;;0.95;0.60;;;;;;;16.43;32.04;101717.22;6239023;23;20011;-87
2023/01/06 07:55:26;;;;;;;1.00;0.60;;;;;;;16.47;32.10;101729.28;6239423;23;20274;-87
2023/01/06 07:57:52;;;;;;;1.38;0.70;;;;;;;16.29;32.05;101692.81;6240077;23;20071;-87
2023/01/06 08:00:18;;;;;;;0.68;0.50;;;;;;;16.48;32.11;101725.59;6242026;22;20257;-87
2023/01/06 08:02:44;;;;;;;0.93;0.60;;;;;;;16.24;32.15;101683.66;6241638;22;20283;-87
2023/01/06 08:05:09;;;;;;;0.77;0.50;;;;;;;16.34;32.08;101713.84;6240927;22;20008;-87
2023/01/06 08:07:35;;;;;;;0.68;0.63;;;;;;;16.32;32.20;101715.91;6240669;22;20547;-87
2023/01/06 08:10:01;;;;;;;1.40;0.70;;;;;;;16.29;32.26;101705.50;6213846;23;20437;-87
2023/01/06 08:12:26;;;;;;;1.08;0.60;;;;;;;16.45;32.06;101731.38;6239725;23;20000;-87
2023/01/06 08:14:52;;;;;;;1.40;0.65;;;;;;;16.39;32.13;101721.38;6238739;23;20004;-87
2023/01/06 08:17:18;;;;;;;2.05;0.70;;;;;;;16.29;32.11;101716.28;6240434;22;20000;-87
2023/01/06 08:19:46;;;;;;;0.52;0.40;;;;;;;16.34;32.08;101725.47;6238591;23;20036;-87
2023/01/06 08:22:12;;;;;;;0.77;0.57;;;;;;;16.58;32.12;101763.88;6239110;23;20483;-87
2023/01/06 08:24:38;;;;;;;1.48;0.50;;;;;;;16.42;32.10;101748.78;6238850;23;20031;-87
2023/01/06 08:27:03;;;;;;;1.20;0.60;;;;;;;16.38;32.14;101749.34;6188125;23;20062;-87
2023/01/06 08:29:29;;;;;;;0.85;0.57;;;;;;;16.23;32.15;101712.50;6213811;23;20005;-87
2023/01/06 08:31:57;;;;;;;0.75;0.50;;;;;;;16.22;32.21;101715.38;6241040;22;20516;-87
2023/01/06 08:34:23;;;;;;;1.33;0.63;;;;;;;16.45;32.17;101766.44;6240801;23;19999;-87
2023/01/06 08:36:49;;;;;;;0.77;0.52;;;;;;;16.52;32.17;101776.28;6188116;23;20008;-87
2023/01/06 08:39:15;;;;;;;0.63;0.50;;;;;;;16.31;31.93;101752.81;6188680;23;20062;-87
2023/01/06 08:41:40;;;;;;;0.60;0.50;;;;;;;16.29;32.00;101751.34;6238576;23;20043;-87
2023/01/06 08:44:06;;;;;;;1.20;0.50;;;;;;;16.38;32.28;101746.66;6238874;23;20062;-87
2023/01/06 08:46:32;;;;;;;1.27;0.65;;;;;;;16.37;32.08;101758.47;6240129;23;20007;-86
2023/01/06 08:48:58;;;;;;;1.23;0.60;;;;;;;16.40;32.20;101748.16;6238525;23;20027;-87
2023/01/06 08:51:24;;;;;;;1.25;0.70;;;;;;;16.43;32.17;101755.00;6215778;23;20104;-87
2023/01/06 08:53:50;;;;;;;0.70;0.50;;;;;;;16.35;32.21;101745.19;6240636;23;20328;-87
2023/01/06 08:56:18;;;;;;;1.20;0.82;;;;;;;16.43;32.25;101744.22;6242279;22;20393;-87
2023/01/06 08:58:44;;;;;;;1.40;0.80;;;;;;;16.47;32.07;101742.78;6215739;23;20000;-87
2023/01/06 09:01:19;;;;;;;1.13;0.50;;;;;;;16.57;32.03;101756.78;6190561;23;20019;-87
2023/01/06 09:03:44;;;;;;;1.25;0.55;;;;;;;16.56;32.16;101763.25;6216506;23;19997;-87
2023/01/06 09:06:10;;;;;;;1.10;0.70;;;;;;;16.53;32.11;101755.53;6215165;23;20099;-87
2023/01/06 09:08:36;;;;;;;1.40;0.70;;;;;;;16.56;32.26;101759.69;6190015;23;20018;-87
2023/01/06 09:11:13;;;;;;;0.57;0.57;;;;;;;16.47;32.19;101746.34;6189411;23;20011;-87
2023/01/06 09:13:43;;;;;;;1.35;0.70;;;;;;;16.55;32.11;101758.84;6240555;23;20004;-87
2023/01/06 09:16:09;;;;;;;0.93;0.60;;;;;;;16.44;32.28;101741.34;6214199;23;20004;-87
2023/01/06 09:18:35;;;;;;;1.25;0.73;;;;;;;16.32;32.42;101716.72;6239877;23;20023;-87
2023/01/06 09:21:01;;;;;;;0.68;0.60;;;;;;;16.26;32.04;101712.09;6239780;23;20083;-87
2023/01/06 09:23:26;;;;;;;0.65;0.50;;;;;;;16.58;32.34;101755.78;6240654;23;20012;-87
2023/01/06 09:25:54;;;;;;;0.60;0.57;;;;;;;16.44;31.94;101732.41;6242070;22;20015;-87
2023/01/06 09:28:20;;;;;;;0.88;0.60;;;;;;;16.25;32.20;101699.66;6214813;23;20397;-87
2023/01/06 09:30:49;;;;;;;1.08;0.60;;;;;;;16.38;32.11;101719.69;6214608;23;20016;-87
2023/01/06 09:33:15;;;;;;;1.10;0.63;;;;;;;16.26;32.16;101701.31;6189608;23;20207;-87
2023/01/06 09:35:43;;;;;;;1.10;0.73;;;;;;;16.42;32.20;101720.94;6215060;23;20008;-87
2023/01/06 09:38:12;;;;;;;0.82;0.65;;;;;;;16.51;32.36;101736.00;6190103;23;20070;-87
2023/01/06 09:41:00;;;;;;;1.00;0.70;;;;;;;16.50;32.11;101729.75;6215832;23;20007;-87
2023/01/06 09:43:55;;;;;;;0.85;0.70;;;;;;;16.38;32.26;101722.38;6215800;23;20070;-87
2023/01/06 09:46:23;;;;;;;0.80;0.60;;;;;;;16.57;32.08;101748.69;6186728;23;20035;-86
2023/01/06 09:49:07;;;;;;;1.30;0.60;;;;;;;16.55;32.19;101747.25;6189938;23;20062;-86
2023/01/06 09:51:32;;;;;;;0.88;0.50;;;;;;;16.48;32.23;101726.41;6192107;23;20032;-87
2023/01/06 09:54:21;;;;;;;0.60;0.60;;;;;;;16.61;32.16;101739.19;6215433;23;20524;-87
2023/01/06 09:57:04;;;;;;;1.60;0.70;;;;;;;16.54;32.21;101743.72;6240038;23;20487;-87
2023/01/06 09:59:43;;;;;;;1.70;0.52;;;;;;;16.49;32.27;101741.59;6194034;23;20012;-87
2023/01/06 10:02:16;;;;;;;1.63;0.77;;;;;;;16.40;32.12;101715.78;6217694;23;20008;-87
2023/01/06 10:04:41;;;;;;;0.95;0.60;;;;;;;16.49;32.36;101732.66;6215001;23;20004;-87
2023/01/06 10:07:25;;;;;;;0.90;0.70;;;;;;;16.43;32.37;101736.94;6237259;23;20015;-87
2023/01/06 10:09:59;;;;;;;0.80;0.80;;;;;;;16.61;32.18;101763.50;6217383;23;20058;-87
2023/01/06 10:12:50;;;;;;;1.73;0.70;;;;;;;16.46;32.33;101743.84;6239531;23;20007;-86
2023/01/06 10:15:43;;;;;;;1.38;0.82;;;;;;;16.29;32.39;101705.50;6214510;23;20019;-86
2023/01/06 10:18:36;;;;;;;1.30;0.70;;;;;;;16.36;32.24;101716.34;6193223;23;20059;-86
2023/01/06 10:21:12;;;;;;;0.90;0.70;;;;;;;16.57;32.23;101762.19;6216430;23;20138;-87
2023/01/06 10:23:48;;;;;;;1.10;0.70;;;;;;;16.60;32.28;101753.72;6190951;23;20004;-87
2023/01/06 10:26:43;;;;;;;1.45;0.60;;;;;;;16.41;32.31;101727.41;6214815;23;20008;-87
2023/01/06 10:29:13;;;;;;;0.90;0.68;;;;;;;16.45;32.25;101742.16;6191028;23;20012;-87
2023/01/06 10:31:39;;;;;;;1.30;0.80;;;;;;;16.32;32.31;101715.91;6188775;23;20069;-87
2023/01/06 10:34:05;;;;;;;1.20;0.80;;;;;;;16.54;32.20;101749.09;6239301;23;20008;-86
2023/01/06 10:36:33;;;;;;;1.75;0.60;;;;;;;16.60;32.06;101759.09;6214244;23;20027;-86
2023/01/06 10:38:59;;;;;;;1.05;0.70;;;;;;;16.33;32.22;101712.16;6214027;23;20035;-87
2023/01/06 10:41:50;;;;;;;1.60;0.80;;;;;;;16.63;32.39;101755.19;6214657;23;20023;-87
2023/01/06 10:44:15;;;;;;;2.92;0.75;;;;;;;16.60;32.21;101748.31;6238738;23;20062;-86
2023/01/06 10:46:44;;;;;;;1.42;0.52;;;;;;;16.46;32.20;101728.47;6241115;23;20004;-86
2023/01/06 10:49:17;;;;;;;0.60;0.60;;;;;;;16.47;32.32;101734.69;6190077;23;20004;-86
2023/01/06 10:51:50;;;;;;;0.60;0.60;;;;;;;16.54;32.25;101735.63;6214518;23;20020;-87
2023/01/06 10:54:22;;;;;;;1.33;0.80;;;;;;;16.30;32.33;101689.13;6191128;23;20345;-87
2023/01/06 10:56:51;;;;;;;0.73;0.50;;;;;;;16.59;32.31;101743.09;6213476;23;20423;-87
2023/01/06 10:59:17;;;;;;;0.85;0.52;;;;;;;16.46;32.37;101724.94;6189545;23;20066;-87
2023/01/06 11:01:50;;;;;;;0.77;0.70;;;;;;;16.56;32.31;101738.94;6214637;23;20481;-87
2023/01/06 11:04:18;;;;;;;0.98;0.73;;;;;;;16.47;32.37;101716.66;6189662;23;20452;-86
2023/01/06 11:06:55;;;;;;;1.10;0.70;;;;;;;16.59;32.40;101733.16;6214558;23;20007;-86
2023/01/06 11:09:41;;;;;;;1.80;0.80;;;;;;;16.44;32.37;101710.81;6216569;23;20510;-87
2023/01/06 11:12:19;;;;;;;1.02;0.70;;;;;;;16.50;32.44;101726.22;6189077;23;20008;-87
2023/01/06 11:15:07;;;;;;;1.13;0.75;;;;;;;16.57;32.17;101729.81;6189797;23;20011;-87
2023/01/06 11:17:44;;;;;;;1.40;0.70;;;;;;;16.52;32.37;101726.84;6212748;23;20035;-87
2023/01/06 11:20:12;;;;;;;0.70;0.60;;;;;;;16.61;32.20;101741.91;6189170;23;20016;-87
2023/01/06 11:22:42;;;;;;;0.80;0.55;;;;;;;16.50;32.21;101720.81;6239201;23;20005;-87
2023/01/06 11:25:19;;;;;;;0.85;0.70;;;;;;;16.63;32.19;101739.00;6188470;23;20008;-87
2023/01/06 11:28:09;;;;;;;1.88;0.80;;;;;;;16.33;32.05;101696.81;6240329;22;20000;-87
2023/01/06 11:31:01;;;;;;;1.30;0.70;;;;;;;16.56;32.42;101727.28;6238692;23;20008;-87
2023/01/06 11:33:28;;;;;;;1.23;0.70;;;;;;;16.42;32.14;101702.91;6190647;23;20014;-87
2023/01/06 11:35:54;;;;;;;1.02;0.60;;;;;;;16.40;32.26;101701.44;6188749;23;20077;-87
2023/01/06 11:38:20;;;;;;;1.55;0.70;;;;;;;16.46;32.24;101711.47;6213808;23;20008;-86
2023/01/06 11:40:50;;;;;;;1.80;0.80;;;;;;;16.34;32.26;101687.69;6237114;23;20146;-86